Terminal Aerodrome Forecast
Issued by NWS Paducah, KY

Home | Current Version | Previous Version | Text Only | Print | Product List | Glossary On
Versions: 1 2 3 4 5 6 7 8 9 10 11 12 13 14 15 16 17
000
FTUS43 KPAH 262200 AAB
TAFEVV
TAF AMD
KEVV 262238Z 2623/2718 22005KT 5SM -SN BKN035
      TEMPO 2623/2701 1SM -SN BKN015
     FM270100 VRB03KT P6SM BKN020
     FM270900 01004KT P6SM BKN015
      TEMPO 2709/2713 5SM BR BKN009
     FM271500 36006KT P6SM BKN020=

USA.gov is the U.S. government's official web portal to all federal, state and local government web resources and services.